Time,TemperatureF,DewpointF,PressureIn,WindDirection,WindDirectionDegrees,WindSpeedMPH,WindSpeedGustMPH,Humidity,HourlyPrecipIn,Conditions,Clouds,dailyrainin,SoftwareType,DateUTC
2013-03-14 00:02:00,20.8,17.8,29.71,South,170,1.0,7.0,88,0.00,,,0.00,meteohub,2013-03-13 23:02:00,
2013-03-14 00:07:00,20.8,17.8,29.71,South,170,1.0,5.0,88,0.00,,,0.00,meteohub,2013-03-13 23:07:00,
2013-03-14 00:12:00,20.7,17.6,29.71,South,181,0.0,5.0,88,0.00,,,0.00,meteohub,2013-03-13 23:12:00,
2013-03-14 00:17:00,20.7,17.6,29.71,South,182,1.0,5.0,88,0.00,,,0.00,meteohub,2013-03-13 23:17:00,
2013-03-14 00:27:00,20.5,17.4,29.72,SSE,163,2.0,4.0,88,0.00,,,0.00,meteohub,2013-03-13 23:27:00,
2013-03-14 00:32:00,20.3,17.2,29.72,South,169,0.0,4.0,88,0.00,,,0.00,meteohub,2013-03-13 23:32:00,
2013-03-14 00:37:00,20.1,17.1,29.72,South,169,1.0,4.0,88,0.00,,,0.00,meteohub,2013-03-13 23:37:00,
2013-03-14 00:42:00,20.3,17.6,29.72,SSE,168,1.0,3.0,89,0.00,,,0.00,meteohub,2013-03-13 23:42:00,
2013-03-14 00:47:00,20.3,17.2,29.72,SSE,168,1.0,2.0,88,0.00,,,0.00,meteohub,2013-03-13 23:47:00,
2013-03-14 00:52:00,20.3,17.2,29.72,SSE,168,0.0,2.0,88,0.00,,,0.00,meteohub,2013-03-13 23:52:00,
2013-03-14 01:02:00,20.5,17.4,29.72,South,169,0.0,2.0,88,0.00,,,0.00,meteohub,2013-03-14 00:02:00,
2013-03-14 01:07:00,20.5,17.4,29.72,SSE,166,1.0,2.0,88,0.00,,,0.00,meteohub,2013-03-14 00:07:00,
2013-03-14 01:12:00,20.3,17.2,29.72,South,173,0.0,4.0,88,0.00,,,0.00,meteohub,2013-03-14 00:12:00,
2013-03-14 01:22:00,20.5,17.4,29.72,South,169,1.0,4.0,88,0.00,,,0.00,meteohub,2013-03-14 00:22:00,
2013-03-14 01:27:00,20.3,17.2,29.73,South,169,0.0,4.0,88,0.00,,,0.00,meteohub,2013-03-14 00:27:00,
2013-03-14 01:32:00,20.3,17.2,29.73,South,169,0.0,4.0,88,0.00,,,0.00,meteohub,2013-03-14 00:32:00,
2013-03-14 01:42:00,20.3,17.2,29.73,South,169,0.0,0.0,88,0.00,,,0.00,meteohub,2013-03-14 00:42:00,
2013-03-14 01:47:00,20.1,17.1,29.73,South,169,0.0,0.0,88,0.00,,,0.00,meteohub,2013-03-14 00:47:00,
2013-03-14 01:52:00,20.1,17.1,29.73,South,169,0.0,0.0,88,0.00,,,0.00,meteohub,2013-03-14 00:52:00,
2013-03-14 01:57:00,20.1,17.4,29.73,South,169,0.0,0.0,89,0.00,,,0.00,meteohub,2013-03-14 00:57:00,
2013-03-14 02:07:00,20.3,17.6,29.73,South,169,0.0,1.0,89,0.00,,,0.00,meteohub,2013-03-14 01:07:00,
2013-03-14 02:12:00,20.3,17.6,29.73,SSE,165,0.0,1.0,89,0.00,,,0.00,meteohub,2013-03-14 01:12:00,
2013-03-14 02:17:00,20.5,17.8,29.73,SSE,166,0.0,1.0,89,0.00,,,0.00,meteohub,2013-03-14 01:17:00,
2013-03-14 02:22:00,20.5,17.8,29.73,SSE,166,0.0,1.0,89,0.00,,,0.00,meteohub,2013-03-14 01:22:00,
2013-03-14 02:32:00,20.5,17.4,29.73,SSE,166,0.0,1.0,88,0.00,,,0.00,meteohub,2013-03-14 01:32:00,
2013-03-14 02:37:00,20.7,17.6,29.72,South,169,1.0,1.0,88,0.00,,,0.00,meteohub,2013-03-14 01:37:00,
2013-03-14 02:47:00,20.5,17.4,29.72,South,169,1.0,2.0,88,0.00,,,0.00,meteohub,2013-03-14 01:47:00,
2013-03-14 02:52:00,20.5,17.4,29.72,South,169,0.0,2.0,88,0.00,,,0.00,meteohub,2013-03-14 01:52:00,
2013-03-14 02:57:00,20.7,17.4,29.72,South,180,0.0,1.0,87,0.00,,,0.00,meteohub,2013-03-14 01:57:00,
2013-03-14 03:07:00,20.7,17.4,29.72,SSE,167,0.0,3.0,87,0.00,,,0.00,meteohub,2013-03-14 02:07:00,
2013-03-14 03:12:00,20.5,17.2,29.72,SSE,163,0.0,3.0,87,0.00,,,0.00,meteohub,2013-03-14 02:12:00,
2013-03-14 03:17:00,20.5,16.9,29.72,South,171,0.0,4.0,86,0.00,,,0.00,meteohub,2013-03-14 02:17:00,
2013-03-14 03:27:00,20.5,16.9,29.72,South,169,0.0,4.0,86,0.00,,,0.00,meteohub,2013-03-14 02:27:00,
2013-03-14 03:37:00,20.5,16.9,29.72,South,171,1.0,2.0,86,0.00,,,0.00,meteohub,2013-03-14 02:37:00,
2013-03-14 03:42:00,20.5,16.9,29.72,SSE,168,0.0,2.0,86,0.00,,,0.00,meteohub,2013-03-14 02:42:00,
2013-03-14 03:47:00,20.5,16.9,29.72,South,169,0.0,2.0,86,0.00,,,0.00,meteohub,2013-03-14 02:47:00,
2013-03-14 03:57:00,20.7,17.1,29.72,SSE,167,0.0,4.0,86,0.00,,,0.00,meteohub,2013-03-14 02:57:00,
2013-03-14 04:07:00,20.8,17.1,29.71,South,172,0.0,5.0,85,0.00,,,0.00,meteohub,2013-03-14 03:07:00,
2013-03-14 04:12:00,20.8,17.1,29.71,SSE,167,1.0,5.0,85,0.00,,,0.00,meteohub,2013-03-14 03:12:00,
2013-03-14 04:22:00,20.8,17.1,29.71,South,178,0.0,4.0,85,0.00,,,0.00,meteohub,2013-03-14 03:22:00,
2013-03-14 04:27:00,20.8,16.7,29.72,SSE,167,0.0,3.0,84,0.00,,,0.00,meteohub,2013-03-14 03:27:00,
2013-03-14 04:32:00,20.8,17.1,29.72,South,171,1.0,3.0,85,0.00,,,0.00,meteohub,2013-03-14 03:32:00,
2013-03-14 04:37:00,20.8,16.7,29.72,South,178,0.0,4.0,84,0.00,,,0.00,meteohub,2013-03-14 03:37:00,
2013-03-14 04:47:00,20.8,16.7,29.72,South,182,0.0,4.0,84,0.00,,,0.00,meteohub,2013-03-14 03:47:00,
2013-03-14 04:52:00,20.8,16.7,29.72,South,179,1.0,6.0,84,0.00,,,0.00,meteohub,2013-03-14 03:52:00,
2013-03-14 05:02:00,20.8,16.7,29.72,South,173,2.0,6.0,84,0.00,,,0.00,meteohub,2013-03-14 04:02:00,
2013-03-14 05:07:00,20.8,16.7,29.72,South,185,0.0,5.0,84,0.00,,,0.00,meteohub,2013-03-14 04:07:00,
2013-03-14 05:12:00,20.8,16.7,29.72,South,169,1.0,5.0,84,0.00,,,0.00,meteohub,2013-03-14 04:12:00,
2013-03-14 05:22:00,20.5,16.2,29.72,South,169,0.0,6.0,83,0.00,,,0.00,meteohub,2013-03-14 04:22:00,
2013-03-14 05:27:00,20.3,16.0,29.72,SSE,166,1.0,6.0,83,0.00,,,0.00,meteohub,2013-03-14 04:27:00,
2013-03-14 05:37:00,19.9,15.6,29.73,SSE,164,0.0,5.0,83,0.00,,,0.00,meteohub,2013-03-14 04:37:00,
2013-03-14 05:42:00,19.8,15.4,29.73,SSE,165,0.0,5.0,83,0.00,,,0.00,meteohub,2013-03-14 04:42:00,
2013-03-14 05:47:00,19.6,15.3,29.73,South,169,0.0,5.0,83,0.00,,,0.00,meteohub,2013-03-14 04:47:00,
2013-03-14 05:57:00,19.2,14.9,29.73,South,169,0.0,2.0,83,0.00,,,0.00,meteohub,2013-03-14 04:57:00,
2013-03-14 06:02:00,19.0,15.1,29.73,South,169,0.0,2.0,84,0.00,,,0.00,meteohub,2013-03-14 05:02:00,
2013-03-14 06:07:00,18.9,14.9,29.73,South,169,1.0,2.0,84,0.00,,,0.00,meteohub,2013-03-14 05:07:00,
2013-03-14 06:17:00,18.7,14.7,29.73,SSE,167,0.0,1.0,84,0.00,,,0.00,meteohub,2013-03-14 05:17:00,
2013-03-14 06:22:00,18.5,14.5,29.74,SSE,167,0.0,1.0,84,0.00,,,0.00,meteohub,2013-03-14 05:22:00,
2013-03-14 06:27:00,18.3,14.4,29.74,SSE,167,0.0,1.0,84,0.00,,,0.00,meteohub,2013-03-14 05:27:00,
2013-03-14 06:32:00,18.1,14.2,29.74,SSE,167,0.0,1.0,84,0.00,,,0.00,meteohub,2013-03-14 05:32:00,
2013-03-14 06:37:00,18.1,14.4,29.74,SSE,167,0.0,1.0,85,0.00,,,0.00,meteohub,2013-03-14 05:37:00,
2013-03-14 06:42:00,18.0,14.2,29.75,SSE,167,1.0,1.0,85,0.00,,,0.00,meteohub,2013-03-14 05:42:00,
2013-03-14 06:52:00,18.0,14.2,29.75,SSE,167,0.0,2.0,85,0.00,,,0.00,meteohub,2013-03-14 05:52:00,
2013-03-14 06:57:00,18.1,14.4,29.75,SSE,167,0.0,2.0,85,0.00,,,0.00,meteohub,2013-03-14 05:57:00,
2013-03-14 07:02:00,18.1,14.4,29.75,SSE,167,0.0,1.0,85,0.00,,,0.00,meteohub,2013-03-14 06:02:00,
2013-03-14 07:07:00,18.3,14.5,29.75,South,169,0.0,2.0,85,0.00,,,0.00,meteohub,2013-03-14 06:07:00,
2013-03-14 07:12:00,18.7,14.9,29.76,South,169,0.0,2.0,85,0.00,,,0.00,meteohub,2013-03-14 06:12:00,
2013-03-14 07:17:00,19.0,15.1,29.76,South,169,0.0,2.0,84,0.00,,,0.00,meteohub,2013-03-14 06:17:00,
2013-03-14 07:22:00,19.4,15.4,29.76,South,169,0.0,1.0,84,0.00,,,0.00,meteohub,2013-03-14 06:22:00,
2013-03-14 07:27:00,19.9,15.6,29.75,South,169,0.0,1.0,83,0.00,,,0.00,meteohub,2013-03-14 06:27:00,
2013-03-14 07:32:00,20.1,15.4,29.76,South,169,0.0,1.0,82,0.00,,,0.00,meteohub,2013-03-14 06:32:00,
2013-03-14 07:37:00,20.1,15.3,29.76,SSE,161,1.0,4.0,81,0.00,,,0.00,meteohub,2013-03-14 06:37:00,
2013-03-14 07:42:00,20.3,15.4,29.76,SSE,161,0.0,5.0,81,0.00,,,0.00,meteohub,2013-03-14 06:42:00,
2013-03-14 07:47:00,20.7,15.8,29.76,South,180,1.0,5.0,81,0.00,,,0.00,meteohub,2013-03-14 06:47:00,
2013-03-14 07:57:00,21.0,15.8,29.77,SSE,154,0.0,5.0,80,0.00,,,0.00,meteohub,2013-03-14 06:57:00,
2013-03-14 08:07:00,21.7,16.2,29.77,South,177,1.0,5.0,79,0.00,,,0.00,meteohub,2013-03-14 07:07:00,
2013-03-14 08:12:00,21.9,16.2,29.77,South,186,2.0,4.0,78,0.00,,,0.00,meteohub,2013-03-14 07:12:00,
2013-03-14 08:22:00,22.1,16.0,29.76,South,180,1.0,7.0,77,0.00,,,0.00,meteohub,2013-03-14 07:22:00,
2013-03-14 08:27:00,22.3,16.2,29.76,South,172,1.0,7.0,77,0.00,,,0.00,meteohub,2013-03-14 07:27:00,
2013-03-14 08:32:00,22.5,16.0,29.76,South,178,1.0,6.0,76,0.00,,,0.00,meteohub,2013-03-14 07:32:00,
2013-03-14 08:42:00,23.0,16.5,29.76,SSE,155,4.0,7.0,76,0.00,,,0.00,meteohub,2013-03-14 07:42:00,
2013-03-14 08:47:00,23.4,16.7,29.76,SSE,150,5.0,7.0,75,0.00,,,0.00,meteohub,2013-03-14 07:47:00,
2013-03-14 08:57:00,23.4,16.3,29.76,SW,220,4.0,9.0,74,0.00,,,0.00,meteohub,2013-03-14 07:57:00,
2013-03-14 09:07:00,23.5,16.5,29.76,SSE,163,4.0,9.0,74,0.00,,,0.00,meteohub,2013-03-14 08:07:00,
2013-03-14 09:12:00,23.5,16.5,29.76,South,172,4.0,8.0,74,0.00,,,0.00,meteohub,2013-03-14 08:12:00,
2013-03-14 09:17:00,23.5,16.2,29.76,SSE,168,5.0,9.0,73,0.00,,,0.00,meteohub,2013-03-14 08:17:00,
2013-03-14 09:27:00,23.7,16.3,29.76,South,172,6.0,11.0,73,0.01,,,0.01,meteohub,2013-03-14 08:27:00,
2013-03-14 09:37:00,23.7,16.3,29.75,SW,227,2.0,10.0,73,0.01,,,0.01,meteohub,2013-03-14 08:37:00,
2013-03-14 09:42:00,24.1,16.7,29.76,SSE,148,7.0,10.0,73,0.01,,,0.01,meteohub,2013-03-14 08:42:00,
2013-03-14 09:52:00,23.7,16.3,29.76,South,180,0.0,12.0,73,0.01,,,0.01,meteohub,2013-03-14 08:52:00,
2013-03-14 10:02:00,24.3,16.9,29.75,SSE,158,5.0,10.0,73,0.02,,,0.02,meteohub,2013-03-14 09:02:00,
2013-03-14 10:07:00,24.4,17.1,29.75,South,185,1.0,10.0,73,0.02,,,0.02,meteohub,2013-03-14 09:07:00,
2013-03-14 10:12:00,24.6,16.9,29.75,South,173,3.0,9.0,72,0.02,,,0.02,meteohub,2013-03-14 09:12:00,
2013-03-14 10:22:00,25.0,17.2,29.75,South,174,1.0,12.0,72,0.02,,,0.02,meteohub,2013-03-14 09:22:00,
2013-03-14 10:27:00,25.0,16.9,29.76,SSE,167,4.0,12.0,71,0.02,,,0.02,meteohub,2013-03-14 09:27:00,
2013-03-14 10:32:00,25.2,17.1,29.76,SSE,153,6.0,9.0,71,0.02,,,0.02,meteohub,2013-03-14 09:32:00,
2013-03-14 10:37:00,25.2,17.1,29.75,SSE,161,2.0,10.0,71,0.02,,,0.02,meteohub,2013-03-14 09:37:00,
2013-03-14 10:47:00,25.5,17.4,29.75,SSE,162,4.0,10.0,71,0.02,,,0.03,meteohub,2013-03-14 09:47:00,
2013-03-14 10:52:00,25.7,17.2,29.76,South,169,2.0,10.0,70,0.02,,,0.03,meteohub,2013-03-14 09:52:00,
2013-03-14 10:57:00,25.9,17.1,29.76,SSE,162,4.0,10.0,69,0.02,,,0.04,meteohub,2013-03-14 09:57:00,
2013-03-14 11:02:00,26.2,17.4,29.76,SSE,160,3.0,9.0,69,0.02,,,0.04,meteohub,2013-03-14 10:02:00,
2013-03-14 11:07:00,26.2,16.7,29.76,South,169,2.0,8.0,67,0.02,,,0.04,meteohub,2013-03-14 10:07:00,
2013-03-14 11:12:00,26.2,17.1,29.76,South,188,1.0,11.0,68,0.03,,,0.05,meteohub,2013-03-14 10:12:00,
2013-03-14 11:17:00,26.2,17.1,29.76,SSE,161,5.0,11.0,68,0.02,,,0.05,meteohub,2013-03-14 10:17:00,
2013-03-14 11:22:00,26.1,16.7,29.76,SSE,160,2.0,10.0,67,0.02,,,0.05,meteohub,2013-03-14 10:22:00,
2013-03-14 11:27:00,26.2,17.1,29.75,South,173,4.0,11.0,68,0.03,,,0.06,meteohub,2013-03-14 10:27:00,
2013-03-14 11:37:00,26.6,17.4,29.76,South,191,2.0,8.0,68,0.03,,,0.06,meteohub,2013-03-14 10:37:00,
2013-03-14 11:47:00,26.8,17.2,29.75,SSE,153,2.0,11.0,67,0.02,,,0.06,meteohub,2013-03-14 10:47:00,
2013-03-14 11:57:00,27.0,16.7,29.76,SSW,203,1.0,8.0,65,0.02,,,0.06,meteohub,2013-03-14 10:57:00,
2013-03-14 12:02:00,26.8,16.5,29.75,SSE,157,4.0,6.0,65,0.02,,,0.06,meteohub,2013-03-14 11:02:00,
2013-03-14 12:12:00,27.0,16.7,29.75,South,171,2.0,11.0,65,0.01,,,0.06,meteohub,2013-03-14 11:12:00,
2013-03-14 12:22:00,27.0,16.7,29.76,South,176,4.0,11.0,65,0.01,,,0.06,meteohub,2013-03-14 11:22:00,
2013-03-14 12:27:00,27.0,15.6,29.76,SW,220,5.0,12.0,62,0.00,,,0.06,meteohub,2013-03-14 11:27:00,
2013-03-14 12:32:00,27.0,16.0,29.76,SSE,165,3.0,12.0,63,0.00,,,0.06,meteohub,2013-03-14 11:32:00,
2013-03-14 12:42:00,27.0,16.7,29.76,SSE,158,3.0,11.0,65,0.00,,,0.06,meteohub,2013-03-14 11:42:00,
2013-03-14 12:47:00,27.1,16.2,29.76,SW,227,1.0,11.0,63,0.00,,,0.06,meteohub,2013-03-14 11:47:00,
2013-03-14 12:52:00,27.1,16.2,29.75,SSW,193,1.0,8.0,63,0.00,,,0.06,meteohub,2013-03-14 11:52:00,
2013-03-14 13:02:00,27.3,16.3,29.75,SSE,161,7.0,9.0,63,0.00,,,0.06,meteohub,2013-03-14 12:02:00,
2013-03-14 13:07:00,27.3,16.7,29.75,South,177,5.0,9.0,64,0.00,,,0.06,meteohub,2013-03-14 12:07:00,
2013-03-14 13:12:00,27.3,17.1,29.75,SSE,160,5.0,11.0,65,0.00,,,0.06,meteohub,2013-03-14 12:12:00,
2013-03-14 13:17:00,27.1,16.5,29.75,SSE,155,4.0,11.0,64,0.00,,,0.06,meteohub,2013-03-14 12:17:00,
2013-03-14 13:27:00,27.1,16.9,29.74,SSE,164,1.0,8.0,65,0.00,,,0.06,meteohub,2013-03-14 12:27:00,
2013-03-14 13:32:00,27.3,17.1,29.74,WNW,286,2.0,10.0,65,0.00,,,0.06,meteohub,2013-03-14 12:32:00,
2013-03-14 13:42:00,27.3,17.1,29.74,SSW,197,1.0,10.0,65,0.00,,,0.06,meteohub,2013-03-14 12:42:00,
2013-03-14 13:52:00,27.7,17.4,29.74,SSE,157,2.0,8.0,65,0.00,,,0.06,meteohub,2013-03-14 12:52:00,
2013-03-14 14:02:00,27.9,17.6,29.74,SE,134,2.0,11.0,65,0.00,,,0.06,meteohub,2013-03-14 13:02:00,
2013-03-14 14:12:00,27.9,17.2,29.73,NNW,329,1.0,13.0,64,0.00,,,0.06,meteohub,2013-03-14 13:12:00,
2013-03-14 14:17:00,27.9,17.2,29.73,SSE,159,4.0,11.0,64,0.00,,,0.06,meteohub,2013-03-14 13:17:00,
2013-03-14 14:27:00,28.2,17.6,29.73,SSE,161,6.0,13.0,64,0.00,,,0.06,meteohub,2013-03-14 13:27:00,
2013-03-14 14:37:00,28.2,17.2,29.73,SSE,163,2.0,13.0,63,0.00,,,0.06,meteohub,2013-03-14 13:37:00,
2013-03-14 14:42:00,28.6,16.9,29.73,South,189,4.0,10.0,61,0.00,,,0.06,meteohub,2013-03-14 13:42:00,
2013-03-14 14:52:00,28.9,16.3,29.73,SW,223,4.0,10.0,59,0.00,,,0.06,meteohub,2013-03-14 13:52:00,
2013-03-14 15:02:00,28.9,16.3,29.73,SSE,153,6.0,11.0,59,0.00,,,0.06,meteohub,2013-03-14 14:02:00,
2013-03-14 15:07:00,28.9,15.6,29.73,South,187,5.0,11.0,57,0.00,,,0.06,meteohub,2013-03-14 14:07:00,
2013-03-14 15:17:00,28.9,16.0,29.73,SSE,150,6.0,13.0,58,0.00,,,0.06,meteohub,2013-03-14 14:17:00,
2013-03-14 15:22:00,28.9,15.3,29.73,SSE,149,8.0,16.0,56,0.00,,,0.06,meteohub,2013-03-14 14:22:00,
2013-03-14 15:32:00,28.9,16.9,29.73,South,176,6.0,18.0,60,0.00,,,0.06,meteohub,2013-03-14 14:32:00,
2013-03-14 15:37:00,28.9,16.9,29.73,SW,224,4.0,12.0,60,0.00,,,0.06,meteohub,2013-03-14 14:37:00,
2013-03-14 15:42:00,28.9,16.0,29.73,SW,234,2.0,9.0,58,0.00,,,0.06,meteohub,2013-03-14 14:42:00,
2013-03-14 15:47:00,29.1,16.9,29.73,SSW,205,2.0,9.0,60,0.00,,,0.06,meteohub,2013-03-14 14:47:00,
2013-03-14 15:57:00,28.9,16.0,29.74,SSE,163,5.0,13.0,58,0.00,,,0.06,meteohub,2013-03-14 14:57:00,
2013-03-14 16:02:00,28.9,16.3,29.74,SSW,194,1.0,13.0,59,0.00,,,0.06,meteohub,2013-03-14 15:02:00,
2013-03-14 16:07:00,28.9,16.3,29.74,South,178,2.0,13.0,59,0.00,,,0.06,meteohub,2013-03-14 15:07:00,
2013-03-14 16:12:00,28.8,16.2,29.74,SW,228,2.0,11.0,59,0.00,,,0.06,meteohub,2013-03-14 15:12:00,
2013-03-14 16:17:00,28.8,16.2,29.74,South,175,5.0,11.0,59,0.00,,,0.06,meteohub,2013-03-14 15:17:00,
2013-03-14 16:22:00,28.6,16.2,29.74,SSW,200,0.0,11.0,59,0.00,,,0.06,meteohub,2013-03-14 15:22:00,
2013-03-14 16:32:00,28.6,16.2,29.74,NNE,18,1.0,10.0,59,0.00,,,0.06,meteohub,2013-03-14 15:32:00,
2013-03-14 16:37:00,28.6,16.2,29.74,SSE,167,2.0,10.0,59,0.00,,,0.06,meteohub,2013-03-14 15:37:00,
2013-03-14 16:42:00,28.6,15.6,29.74,SW,224,1.0,9.0,58,0.00,,,0.06,meteohub,2013-03-14 15:42:00,
2013-03-14 16:47:00,28.4,15.4,29.74,SSE,166,4.0,8.0,58,0.00,,,0.06,meteohub,2013-03-14 15:47:00,
2013-03-14 16:52:00,28.4,15.4,29.75,SE,146,4.0,9.0,58,0.00,,,0.06,meteohub,2013-03-14 15:52:00,
2013-03-14 17:02:00,28.2,14.9,29.75,SSE,147,8.0,8.0,57,0.00,,,0.06,meteohub,2013-03-14 16:02:00,
2013-03-14 17:07:00,28.0,14.7,29.75,South,172,2.0,9.0,57,0.00,,,0.06,meteohub,2013-03-14 16:07:00,
2013-03-14 17:12:00,28.0,14.7,29.75,SSE,159,4.0,9.0,57,0.00,,,0.06,meteohub,2013-03-14 16:12:00,
2013-03-14 17:22:00,28.0,14.7,29.76,South,174,2.0,10.0,57,0.00,,,0.06,meteohub,2013-03-14 16:22:00,
2013-03-14 17:27:00,28.0,15.3,29.76,SSE,157,2.0,10.0,58,0.00,,,0.06,meteohub,2013-03-14 16:27:00,
2013-03-14 17:32:00,27.9,14.5,29.76,SW,222,4.0,13.0,57,0.00,,,0.06,meteohub,2013-03-14 16:32:00,
2013-03-14 17:42:00,27.5,15.1,29.76,South,172,4.0,13.0,59,0.00,,,0.06,meteohub,2013-03-14 16:42:00,
2013-03-14 17:52:00,27.1,15.1,29.77,SSE,154,4.0,9.0,60,0.00,,,0.06,meteohub,2013-03-14 16:52:00,
2013-03-14 18:02:00,27.0,14.9,29.77,SSE,167,2.0,8.0,60,0.00,,,0.06,meteohub,2013-03-14 17:02:00,
2013-03-14 18:12:00,26.8,14.7,29.78,SW,228,5.0,9.0,60,0.00,,,0.06,meteohub,2013-03-14 17:12:00,
2013-03-14 18:22:00,26.6,14.5,29.78,South,179,2.0,11.0,60,0.00,,,0.06,meteohub,2013-03-14 17:22:00,
2013-03-14 18:27:00,26.4,14.4,29.78,SSE,148,5.0,9.0,60,0.00,,,0.06,meteohub,2013-03-14 17:27:00,
2013-03-14 18:32:00,26.4,14.4,29.78,SSE,157,5.0,9.0,60,0.00,,,0.06,meteohub,2013-03-14 17:32:00,
2013-03-14 18:42:00,26.2,14.5,29.78,SSW,204,4.0,8.0,61,0.00,,,0.06,meteohub,2013-03-14 17:42:00,
2013-03-14 18:47:00,26.1,14.9,29.78,SSE,162,2.0,10.0,62,0.00,,,0.06,meteohub,2013-03-14 17:47:00,
2013-03-14 18:57:00,26.1,15.3,29.78,SE,144,4.0,10.0,63,0.00,,,0.06,meteohub,2013-03-14 17:57:00,
2013-03-14 19:02:00,25.9,15.4,29.78,SSE,157,6.0,9.0,64,0.00,,,0.06,meteohub,2013-03-14 18:02:00,
2013-03-14 19:07:00,25.7,15.6,29.78,South,169,3.0,9.0,65,0.00,,,0.06,meteohub,2013-03-14 18:07:00,
2013-03-14 19:12:00,23.4,15.1,29.78,South,169,5.0,9.0,70,0.00,,,0.06,meteohub,2013-03-14 18:12:00,
2013-03-14 19:17:00,23.4,15.6,29.79,SSE,152,2.0,9.0,72,0.00,,,0.06,meteohub,2013-03-14 18:17:00,
2013-03-14 19:22:00,23.2,15.8,29.79,SSE,158,5.0,10.0,73,0.00,,,0.06,meteohub,2013-03-14 18:22:00,
2013-03-14 19:32:00,22.8,16.2,29.79,South,171,2.0,10.0,75,0.00,,,0.06,meteohub,2013-03-14 18:32:00,
2013-03-14 19:37:00,22.6,16.2,29.79,SSE,164,4.0,9.0,76,0.00,,,0.06,meteohub,2013-03-14 18:37:00,
2013-03-14 19:47:00,24.4,17.6,29.79,SSE,161,3.0,10.0,75,0.00,,,0.06,meteohub,2013-03-14 18:47:00,
2013-03-14 19:52:00,24.4,17.6,29.79,SSW,196,9.0,10.0,75,0.00,,,0.06,meteohub,2013-03-14 18:52:00,
2013-03-14 19:57:00,24.4,17.6,29.79,South,185,2.0,10.0,75,0.00,,,0.06,meteohub,2013-03-14 18:57:00,
2013-03-14 20:02:00,24.3,17.8,29.79,South,178,3.0,10.0,76,0.00,,,0.06,meteohub,2013-03-14 19:02:00,
2013-03-14 20:07:00,24.3,17.8,29.79,SSE,159,5.0,10.0,76,0.00,,,0.06,meteohub,2013-03-14 19:07:00,
2013-03-14 20:12:00,24.3,17.8,29.79,SSE,164,4.0,9.0,76,0.00,,,0.06,meteohub,2013-03-14 19:12:00,
2013-03-14 20:22:00,24.1,18.0,29.79,South,178,1.0,10.0,77,0.00,,,0.06,meteohub,2013-03-14 19:22:00,
2013-03-14 20:27:00,24.1,18.0,29.80,South,171,3.0,10.0,77,0.00,,,0.06,meteohub,2013-03-14 19:27:00,
2013-03-14 20:37:00,24.1,18.0,29.80,South,190,2.0,9.0,77,0.00,,,0.06,meteohub,2013-03-14 19:37:00,
2013-03-14 20:47:00,23.7,17.6,29.80,SSE,164,5.0,8.0,77,0.00,,,0.06,meteohub,2013-03-14 19:47:00,
2013-03-14 20:57:00,23.7,18.0,29.79,South,177,4.0,10.0,78,0.00,,,0.06,meteohub,2013-03-14 19:57:00,
2013-03-14 21:02:00,23.7,18.0,29.79,SSE,165,5.0,10.0,78,0.00,,,0.06,meteohub,2013-03-14 20:02:00,
2013-03-14 21:12:00,23.5,17.8,29.79,SSE,161,2.0,10.0,78,0.00,,,0.06,meteohub,2013-03-14 20:12:00,
2013-03-14 21:17:00,23.5,18.0,29.79,SSE,154,5.0,10.0,79,0.00,,,0.06,meteohub,2013-03-14 20:17:00,
2013-03-14 21:22:00,23.5,18.0,29.80,South,185,2.0,8.0,79,0.00,,,0.06,meteohub,2013-03-14 20:22:00,
2013-03-14 21:32:00,23.4,17.8,29.80,South,170,2.0,7.0,79,0.00,,,0.06,meteohub,2013-03-14 20:32:00,
2013-03-14 21:42:00,23.2,17.6,29.80,SSE,164,2.0,9.0,79,0.00,,,0.06,meteohub,2013-03-14 20:42:00,
2013-03-14 21:47:00,23.2,17.6,29.80,South,181,1.0,9.0,79,0.00,,,0.06,meteohub,2013-03-14 20:47:00,
2013-03-14 21:52:00,23.2,18.0,29.80,SSE,162,2.0,9.0,80,0.00,,,0.06,meteohub,2013-03-14 20:52:00,
2013-03-14 21:57:00,23.2,18.0,29.80,South,171,1.0,7.0,80,0.00,,,0.06,meteohub,2013-03-14 20:57:00,
2013-03-14 22:07:00,23.0,17.8,29.80,SSE,152,2.0,7.0,80,0.00,,,0.06,meteohub,2013-03-14 21:07:00,
2013-03-14 22:12:00,23.0,17.8,29.80,SSE,163,3.0,7.0,80,0.00,,,0.06,meteohub,2013-03-14 21:12:00,
2013-03-14 22:22:00,23.0,17.8,29.80,SSE,154,4.0,7.0,80,0.00,,,0.06,meteohub,2013-03-14 21:22:00,
2013-03-14 22:27:00,22.8,17.6,29.80,South,191,1.0,9.0,80,0.00,,,0.06,meteohub,2013-03-14 21:27:00,
2013-03-14 22:32:00,22.8,17.6,29.80,SSE,165,3.0,9.0,80,0.00,,,0.06,meteohub,2013-03-14 21:32:00,
2013-03-14 22:42:00,22.6,17.4,29.80,SSE,166,2.0,6.0,80,0.00,,,0.06,meteohub,2013-03-14 21:42:00,
2013-03-14 22:52:00,22.5,17.6,29.80,SSE,162,0.0,7.0,81,0.00,,,0.06,meteohub,2013-03-14 21:52:00,
2013-03-14 22:57:00,22.5,17.6,29.80,South,180,1.0,7.0,81,0.00,,,0.06,meteohub,2013-03-14 21:57:00,
2013-03-14 23:07:00,22.3,17.4,29.80,SSE,163,4.0,5.0,81,0.00,,,0.06,meteohub,2013-03-14 22:07:00,
2013-03-14 23:12:00,22.3,17.6,29.80,SSE,157,2.0,6.0,82,0.00,,,0.06,meteohub,2013-03-14 22:12:00,
2013-03-14 23:17:00,22.3,17.6,29.80,South,174,4.0,6.0,82,0.00,,,0.06,meteohub,2013-03-14 22:17:00,
2013-03-14 23:22:00,22.3,17.6,29.80,SSW,199,2.0,6.0,82,0.00,,,0.06,meteohub,2013-03-14 22:22:00,
2013-03-14 23:27:00,22.3,17.6,29.80,SSE,167,3.0,6.0,82,0.00,,,0.06,meteohub,2013-03-14 22:27:00,
2013-03-14 23:37:00,22.3,17.6,29.80,SSE,158,2.0,6.0,82,0.00,,,0.06,meteohub,2013-03-14 22:37:00,
2013-03-14 23:42:00,22.3,17.6,29.80,South,182,1.0,8.0,82,0.00,,,0.06,meteohub,2013-03-14 22:42:00,
2013-03-14 23:47:00,22.1,17.4,29.79,SSE,149,4.0,8.0,82,0.00,,,0.06,meteohub,2013-03-14 22:47:00,
2013-03-14 23:57:00,21.9,17.6,29.79,SSE,162,2.0,7.0,83,0.00,,,0.06,meteohub,2013-03-14 22:57:00,